sensor_id;sensor_type;location;lat;lon;timestamp;pressure;altitude;pressure_sealevel;temperature;humidity
11750;BME280;5932;42.656;23.236;2022-07-06T00:01:41;93644.22;;;20.90;100.00
11750;BME280;5932;42.656;23.236;2022-07-06T00:04:09;93645.84;;;20.82;100.00
11750;BME280;5932;42.656;23.236;2022-07-06T00:06:36;93638.47;;;20.73;100.00
11750;BME280;5932;42.656;23.236;2022-07-06T00:09:04;93651.53;;;20.78;100.00
11750;BME280;5932;42.656;23.236;2022-07-06T00:11:32;93649.84;;;20.66;100.00
11750;BME280;5932;42.656;23.236;2022-07-06T00:13:59;93653.56;;;20.63;100.00
11750;BME280;5932;42.656;23.236;2022-07-06T00:16:26;93671.28;;;20.77;100.00
11750;BME280;5932;42.656;23.236;2022-07-06T00:18:53;93673.19;;;20.71;100.00
11750;BME280;5932;42.656;23.236;2022-07-06T00:21:22;93671.28;;;20.77;100.00
11750;BME280;5932;42.656;23.236;2022-07-06T00:23:49;93667.00;;;20.76;100.00
11750;BME280;5932;42.656;23.236;2022-07-06T00:26:17;93677.09;;;20.79;100.00
11750;BME280;5932;42.656;23.236;2022-07-06T00:28:44;93683.63;;;20.81;100.00
11750;BME280;5932;42.656;23.236;2022-07-06T00:31:11;93676.81;;;20.77;100.00
11750;BME280;5932;42.656;23.236;2022-07-06T00:33:38;93680.84;;;20.81;100.00
11750;BME280;5932;42.656;23.236;2022-07-06T00:36:05;93680.03;;;20.75;100.00
11750;BME280;5932;42.656;23.236;2022-07-06T00:38:33;93677.94;;;20.70;100.00
11750;BME280;5932;42.656;23.236;2022-07-06T00:41:00;93682.69;;;20.70;100.00
11750;BME280;5932;42.656;23.236;2022-07-06T00:43:27;93661.72;;;20.58;100.00
11750;BME280;5932;42.656;23.236;2022-07-06T00:45:53;93663.59;;;20.66;100.00
11750;BME280;5932;42.656;23.236;2022-07-06T00:48:20;93665.88;;;20.68;100.00
11750;BME280;5932;42.656;23.236;2022-07-06T00:50:47;93674.34;;;20.64;100.00
11750;BME280;5932;42.656;23.236;2022-07-06T00:53:14;93656.13;;;20.52;100.00
11750;BME280;5932;42.656;23.236;2022-07-06T00:55:42;93652.69;;;20.42;100.00
11750;BME280;5932;42.656;23.236;2022-07-06T00:58:09;93642.00;;;20.30;100.00
11750;BME280;5932;42.656;23.236;2022-07-06T01:00:36;93630.63;;;20.22;100.00
11750;BME280;5932;42.656;23.236;2022-07-06T01:03:03;93613.63;;;20.24;100.00
11750;BME280;5932;42.656;23.236;2022-07-06T01:05:30;93624.44;;;20.27;100.00
11750;BME280;5932;42.656;23.236;2022-07-06T01:07:57;93616.84;;;20.37;100.00
11750;BME280;5932;42.656;23.236;2022-07-06T01:10:26;93619.97;;;20.45;100.00
11750;BME280;5932;42.656;23.236;2022-07-06T01:12:54;93628.59;;;20.52;100.00
11750;BME280;5932;42.656;23.236;2022-07-06T01:15:24;93627.94;;;20.57;100.00
11750;BME280;5932;42.656;23.236;2022-07-06T01:17:51;93625.38;;;20.54;100.00
11750;BME280;5932;42.656;23.236;2022-07-06T01:20:22;93628.69;;;20.58;100.00
11750;BME280;5932;42.656;23.236;2022-07-06T01:22:50;93636.00;;;20.61;100.00
11750;BME280;5932;42.656;23.236;2022-07-06T01:25:18;93640.72;;;20.60;100.00
11750;BME280;5932;42.656;23.236;2022-07-06T01:27:45;93623.28;;;20.49;100.00
11750;BME280;5932;42.656;23.236;2022-07-06T01:30:14;93626.03;;;20.49;100.00
11750;BME280;5932;42.656;23.236;2022-07-06T01:32:41;93629.94;;;20.42;100.00
11750;BME280;5932;42.656;23.236;2022-07-06T01:35:10;93636.88;;;20.37;100.00
11750;BME280;5932;42.656;23.236;2022-07-06T01:37:39;93623.19;;;20.28;100.00
11750;BME280;5932;42.656;23.236;2022-07-06T01:40:07;93638.38;;;20.24;100.00
11750;BME280;5932;42.656;23.236;2022-07-06T01:42:35;93632.56;;;20.07;100.00
11750;BME280;5932;42.656;23.236;2022-07-06T01:45:03;93636.59;;;19.97;100.00
11750;BME280;5932;42.656;23.236;2022-07-06T01:47:30;93633.31;;;19.93;100.00
11750;BME280;5932;42.656;23.236;2022-07-06T01:49:59;93632.53;;;19.93;100.00
11750;BME280;5932;42.656;23.236;2022-07-06T01:52:26;93642.31;;;19.94;100.00
11750;BME280;5932;42.656;23.236;2022-07-06T01:54:54;93649.53;;;19.91;100.00
11750;BME280;5932;42.656;23.236;2022-07-06T01:57:21;93650.16;;;19.86;100.00
11750;BME280;5932;42.656;23.236;2022-07-06T01:59:48;93649.28;;;19.80;100.00
11750;BME280;5932;42.656;23.236;2022-07-06T02:02:15;93635.91;;;19.73;100.00
11750;BME280;5932;42.656;23.236;2022-07-06T02:04:42;93632.97;;;19.62;100.00
11750;BME280;5932;42.656;23.236;2022-07-06T02:07:09;93638.84;;;19.70;100.00
11750;BME280;5932;42.656;23.236;2022-07-06T02:09:36;93645.25;;;19.52;100.00
11750;BME280;5932;42.656;23.236;2022-07-06T02:12:05;93641.34;;;19.44;100.00
11750;BME280;5932;42.656;23.236;2022-07-06T02:14:32;93634.59;;;19.45;100.00
11750;BME280;5932;42.656;23.236;2022-07-06T02:16:59;93647.16;;;19.37;100.00
11750;BME280;5932;42.656;23.236;2022-07-06T02:19:26;93643.38;;;19.34;100.00
11750;BME280;5932;42.656;23.236;2022-07-06T02:21:52;93645.19;;;19.37;100.00
11750;BME280;5932;42.656;23.236;2022-07-06T02:24:19;93643.84;;;19.33;100.00
11750;BME280;5932;42.656;23.236;2022-07-06T02:26:46;93648.13;;;19.34;100.00
11750;BME280;5932;42.656;23.236;2022-07-06T02:29:14;93646.81;;;19.20;100.00
11750;BME280;5932;42.656;23.236;2022-07-06T02:31:41;93637.22;;;19.16;100.00
11750;BME280;5932;42.656;23.236;2022-07-06T02:34:08;93644.53;;;18.86;100.00
11750;BME280;5932;42.656;23.236;2022-07-06T02:36:35;93634.78;;;18.52;100.00
11750;BME280;5932;42.656;23.236;2022-07-06T02:39:01;93623.50;;;18.41;100.00
11750;BME280;5932;42.656;23.236;2022-07-06T02:41:28;93623.53;;;18.32;100.00
11750;BME280;5932;42.656;23.236;2022-07-06T02:43:55;93626.31;;;18.23;100.00
11750;BME280;5932;42.656;23.236;2022-07-06T02:46:23;93627.88;;;17.97;100.00
11750;BME280;5932;42.656;23.236;2022-07-06T02:48:50;93626.81;;;17.95;100.00
11750;BME280;5932;42.656;23.236;2022-07-06T02:51:17;93628.94;;;18.00;100.00
11750;BME280;5932;42.656;23.236;2022-07-06T02:53:44;93632.47;;;17.91;100.00
11750;BME280;5932;42.656;23.236;2022-07-06T02:56:10;93634.44;;;18.00;100.00
11750;BME280;5932;42.656;23.236;2022-07-06T02:58:37;93634.72;;;18.11;100.00
11750;BME280;5932;42.656;23.236;2022-07-06T03:01:04;93640.31;;;18.25;100.00
11750;BME280;5932;42.656;23.236;2022-07-06T03:03:32;93637.84;;;18.36;100.00
11750;BME280;5932;42.656;23.236;2022-07-06T03:05:59;93632.22;;;18.49;100.00
11750;BME280;5932;42.656;23.236;2022-07-06T03:08:26;93638.72;;;18.60;100.00
11750;BME280;5932;42.656;23.236;2022-07-06T03:10:53;93638.56;;;18.64;100.00
11750;BME280;5932;42.656;23.236;2022-07-06T03:13:20;93639.69;;;18.48;100.00
11750;BME280;5932;42.656;23.236;2022-07-06T03:15:46;93664.88;;;18.71;100.00
11750;BME280;5932;42.656;23.236;2022-07-06T03:18:13;93659.38;;;18.80;100.00
11750;BME280;5932;42.656;23.236;2022-07-06T03:20:41;93672.28;;;18.88;100.00
11750;BME280;5932;42.656;23.236;2022-07-06T03:23:08;93656.56;;;18.89;100.00
11750;BME280;5932;42.656;23.236;2022-07-06T03:25:35;93666.03;;;18.88;100.00
11750;BME280;5932;42.656;23.236;2022-07-06T03:28:02;93659.78;;;18.87;100.00
11750;BME280;5932;42.656;23.236;2022-07-06T03:30:29;93671.25;;;18.77;100.00
11750;BME280;5932;42.656;23.236;2022-07-06T03:32:55;93629.50;;;18.31;100.00
11750;BME280;5932;42.656;23.236;2022-07-06T03:35:22;93664.16;;;18.61;100.00
11750;BME280;5932;42.656;23.236;2022-07-06T03:37:50;93674.69;;;18.62;100.00
11750;BME280;5932;42.656;23.236;2022-07-06T03:40:17;93658.56;;;18.46;100.00
11750;BME280;5932;42.656;23.236;2022-07-06T03:42:44;93665.84;;;18.58;100.00
11750;BME280;5932;42.656;23.236;2022-07-06T03:45:11;93668.72;;;18.64;100.00
11750;BME280;5932;42.656;23.236;2022-07-06T03:47:37;93678.03;;;18.67;100.00
11750;BME280;5932;42.656;23.236;2022-07-06T03:50:05;93683.94;;;18.65;100.00
11750;BME280;5932;42.656;23.236;2022-07-06T03:52:33;93669.03;;;18.57;100.00
11750;BME280;5932;42.656;23.236;2022-07-06T03:55:02;93672.81;;;18.68;100.00
11750;BME280;5932;42.656;23.236;2022-07-06T03:57:29;93674.19;;;18.73;100.00
11750;BME280;5932;42.656;23.236;2022-07-06T03:59:56;93678.28;;;18.78;100.00
11750;BME280;5932;42.656;23.236;2022-07-06T04:02:23;93683.34;;;18.70;100.00
11750;BME280;5932;42.656;23.236;2022-07-06T04:04:49;93675.56;;;18.68;100.00
11750;BME280;5932;42.656;23.236;2022-07-06T04:07:16;93681.94;;;18.75;100.00
11750;BME280;5932;42.656;23.236;2022-07-06T04:09:43;93681.63;;;18.82;100.00
11750;BME280;5932;42.656;23.236;2022-07-06T04:12:11;93680.38;;;18.92;100.00
11750;BME280;5932;42.656;23.236;2022-07-06T04:14:38;93691.25;;;19.10;100.00
11750;BME280;5932;42.656;23.236;2022-07-06T04:17:05;93688.06;;;19.11;100.00
11750;BME280;5932;42.656;23.236;2022-07-06T04:19:46;93688.16;;;19.17;100.00
11750;BME280;5932;42.656;23.236;2022-07-06T04:22:13;93688.13;;;19.26;100.00
11750;BME280;5932;42.656;23.236;2022-07-06T04:24:39;93680.31;;;19.33;100.00
11750;BME280;5932;42.656;23.236;2022-07-06T04:27:06;93692.41;;;19.50;100.00
11750;BME280;5932;42.656;23.236;2022-07-06T04:29:34;93698.78;;;19.57;98.84
11750;BME280;5932;42.656;23.236;2022-07-06T04:32:01;93697.78;;;19.69;96.25
11750;BME280;5932;42.656;23.236;2022-07-06T04:34:28;93707.09;;;19.71;100.00
11750;BME280;5932;42.656;23.236;2022-07-06T04:36:55;93710.06;;;19.59;99.96
11750;BME280;5932;42.656;23.236;2022-07-06T04:39:22;93706.44;;;19.52;97.64
11750;BME280;5932;42.656;23.236;2022-07-06T04:41:49;93712.66;;;19.62;100.00
11750;BME280;5932;42.656;23.236;2022-07-06T04:44:16;93720.19;;;19.76;100.00
11750;BME280;5932;42.656;23.236;2022-07-06T04:46:44;93747.84;;;19.73;99.01
11750;BME280;5932;42.656;23.236;2022-07-06T04:49:11;93754.31;;;19.61;99.47
11750;BME280;5932;42.656;23.236;2022-07-06T04:51:38;93751.53;;;19.46;97.66
11750;BME280;5932;42.656;23.236;2022-07-06T04:54:05;93756.78;;;19.26;99.84
11750;BME280;5932;42.656;23.236;2022-07-06T04:56:31;93761.34;;;19.29;100.00
11750;BME280;5932;42.656;23.236;2022-07-06T04:58:58;93758.38;;;19.00;100.00
11750;BME280;5932;42.656;23.236;2022-07-06T05:01:25;93764.09;;;18.87;100.00
11750;BME280;5932;42.656;23.236;2022-07-06T05:03:53;93757.53;;;18.85;100.00
11750;BME280;5932;42.656;23.236;2022-07-06T05:06:20;93753.06;;;18.96;100.00
11750;BME280;5932;42.656;23.236;2022-07-06T05:08:46;93760.81;;;19.07;100.00
11750;BME280;5932;42.656;23.236;2022-07-06T05:11:13;93759.44;;;19.11;100.00
11750;BME280;5932;42.656;23.236;2022-07-06T05:13:40;93760.91;;;19.21;100.00
11750;BME280;5932;42.656;23.236;2022-07-06T05:16:07;93765.59;;;19.30;100.00
11750;BME280;5932;42.656;23.236;2022-07-06T05:18:34;93761.78;;;19.27;99.84
11750;BME280;5932;42.656;23.236;2022-07-06T05:21:02;93773.38;;;19.40;100.00
11750;BME280;5932;42.656;23.236;2022-07-06T05:23:29;93778.69;;;19.44;98.50
11750;BME280;5932;42.656;23.236;2022-07-06T05:25:56;93780.22;;;19.45;98.16
11750;BME280;5932;42.656;23.236;2022-07-06T05:28:23;93773.63;;;19.51;98.69
11750;BME280;5932;42.656;23.236;2022-07-06T05:30:49;93773.44;;;19.55;99.24
11750;BME280;5932;42.656;23.236;2022-07-06T05:33:16;93771.88;;;19.63;98.03
11750;BME280;5932;42.656;23.236;2022-07-06T05:35:43;93779.47;;;19.68;98.25
11750;BME280;5932;42.656;23.236;2022-07-06T05:38:11;93788.16;;;19.76;96.87
11750;BME280;5932;42.656;23.236;2022-07-06T05:40:38;93785.06;;;19.83;95.56
11750;BME280;5932;42.656;23.236;2022-07-06T05:43:05;93786.03;;;19.94;94.09
11750;BME280;5932;42.656;23.236;2022-07-06T05:45:31;93787.22;;;20.02;91.48
11750;BME280;5932;42.656;23.236;2022-07-06T05:47:58;93789.97;;;20.02;90.48
11750;BME280;5932;42.656;23.236;2022-07-06T05:50:43;93787.28;;;19.93;92.35
11750;BME280;5932;42.656;23.236;2022-07-06T05:53:12;93789.38;;;19.98;94.04
11750;BME280;5932;42.656;23.236;2022-07-06T05:55:39;93788.28;;;20.05;92.53
11750;BME280;5932;42.656;23.236;2022-07-06T05:58:06;93788.78;;;19.94;93.33
11750;BME280;5932;42.656;23.236;2022-07-06T06:00:33;93795.25;;;19.91;91.62
11750;BME280;5932;42.656;23.236;2022-07-06T06:02:59;93786.91;;;20.00;93.47
11750;BME280;5932;42.656;23.236;2022-07-06T06:05:26;93787.41;;;20.22;92.98
11750;BME280;5932;42.656;23.236;2022-07-06T06:07:53;93782.22;;;20.39;91.10
11750;BME280;5932;42.656;23.236;2022-07-06T06:10:22;93783.75;;;20.55;89.89
11750;BME280;5932;42.656;23.236;2022-07-06T06:12:49;93781.97;;;20.52;87.74
11750;BME280;5932;42.656;23.236;2022-07-06T06:15:16;93776.38;;;20.61;90.20
11750;BME280;5932;42.656;23.236;2022-07-06T06:17:42;93768.13;;;20.75;88.55
11750;BME280;5932;42.656;23.236;2022-07-06T06:20:11;93780.94;;;20.78;88.68
11750;BME280;5932;42.656;23.236;2022-07-06T06:22:46;93783.94;;;20.51;87.59
11750;BME280;5932;42.656;23.236;2022-07-06T06:25:13;93778.88;;;20.35;88.28
11750;BME280;5932;42.656;23.236;2022-07-06T06:27:41;93784.47;;;20.26;87.76
11750;BME280;5932;42.656;23.236;2022-07-06T06:30:10;93775.44;;;20.25;89.17
11750;BME280;5932;42.656;23.236;2022-07-06T06:32:37;93779.75;;;20.26;91.56
11750;BME280;5932;42.656;23.236;2022-07-06T06:35:05;93776.22;;;20.26;92.54
11750;BME280;5932;42.656;23.236;2022-07-06T06:37:32;93777.72;;;20.27;92.60
11750;BME280;5932;42.656;23.236;2022-07-06T06:40:00;93781.75;;;20.40;91.24
11750;BME280;5932;42.656;23.236;2022-07-06T06:42:26;93778.88;;;20.35;91.72
11750;BME280;5932;42.656;23.236;2022-07-06T06:44:54;93767.31;;;20.31;92.89
11750;BME280;5932;42.656;23.236;2022-07-06T06:47:21;93772.31;;;20.32;93.11
11750;BME280;5932;42.656;23.236;2022-07-06T06:49:48;93773.41;;;20.50;91.67
11750;BME280;5932;42.656;23.236;2022-07-06T06:52:15;93769.63;;;20.62;91.12
11750;BME280;5932;42.656;23.236;2022-07-06T06:54:42;93769.63;;;20.62;91.05
11750;BME280;5932;42.656;23.236;2022-07-06T06:57:09;93771.06;;;20.72;91.06
11750;BME280;5932;42.656;23.236;2022-07-06T06:59:35;93770.97;;;20.66;90.27
11750;BME280;5932;42.656;23.236;2022-07-06T07:02:04;93771.91;;;20.63;92.39
11750;BME280;5932;42.656;23.236;2022-07-06T07:04:31;93767.53;;;20.42;90.67
11750;BME280;5932;42.656;23.236;2022-07-06T07:06:57;93765.22;;;20.40;91.95
11750;BME280;5932;42.656;23.236;2022-07-06T07:09:24;93771.09;;;20.33;91.98
11750;BME280;5932;42.656;23.236;2022-07-06T07:11:51;93765.03;;;20.29;92.49
11750;BME280;5932;42.656;23.236;2022-07-06T07:14:18;93773.28;;;20.29;92.72
11750;BME280;5932;42.656;23.236;2022-07-06T07:16:45;93779.75;;;20.17;91.64
11750;BME280;5932;42.656;23.236;2022-07-06T07:19:13;93772.75;;;20.16;92.59
11750;BME280;5932;42.656;23.236;2022-07-06T07:21:40;93764.94;;;20.24;94.11
11750;BME280;5932;42.656;23.236;2022-07-06T07:24:07;93758.03;;;20.43;93.47
11750;BME280;5932;42.656;23.236;2022-07-06T07:26:34;93752.56;;;20.58;92.97
11750;BME280;5932;42.656;23.236;2022-07-06T07:29:01;93763.94;;;20.80;91.76
11750;BME280;5932;42.656;23.236;2022-07-06T07:31:27;93770.22;;;20.80;89.28
11750;BME280;5932;42.656;23.236;2022-07-06T07:33:54;93770.41;;;20.77;88.43
11750;BME280;5932;42.656;23.236;2022-07-06T07:36:24;93771.91;;;20.78;88.59
11750;BME280;5932;42.656;23.236;2022-07-06T07:38:51;93773.91;;;20.77;88.96
11750;BME280;5932;42.656;23.236;2022-07-06T07:41:18;93781.41;;;20.77;89.72
11750;BME280;5932;42.656;23.236;2022-07-06T07:43:44;93778.38;;;20.75;89.57
11750;BME280;5932;42.656;23.236;2022-07-06T07:46:11;93771.25;;;20.68;90.49
11750;BME280;5932;42.656;23.236;2022-07-06T07:48:38;93769.16;;;20.78;89.46
11750;BME280;5932;42.656;23.236;2022-07-06T07:51:05;93774.69;;;20.92;89.85
11750;BME280;5932;42.656;23.236;2022-07-06T07:53:34;93781.22;;;20.95;88.58
11750;BME280;5932;42.656;23.236;2022-07-06T07:56:01;93776.97;;;21.08;89.05
11750;BME280;5932;42.656;23.236;2022-07-06T07:58:28;93766.50;;;21.12;87.50
11750;BME280;5932;42.656;23.236;2022-07-06T08:00:54;93769.47;;;21.23;87.37
11750;BME280;5932;42.656;23.236;2022-07-06T08:03:21;93770.13;;;21.33;87.04
11750;BME280;5932;42.656;23.236;2022-07-06T08:05:48;93764.00;;;21.44;86.24
11750;BME280;5932;42.656;23.236;2022-07-06T08:08:17;93768.78;;;21.63;86.61
11750;BME280;5932;42.656;23.236;2022-07-06T08:10:45;93779.59;;;21.81;84.46
11750;BME280;5932;42.656;23.236;2022-07-06T08:13:12;93785.69;;;21.85;84.64
11750;BME280;5932;42.656;23.236;2022-07-06T08:15:40;93786.81;;;21.79;83.47
11750;BME280;5932;42.656;23.236;2022-07-06T08:18:08;93784.09;;;21.64;84.56
11750;BME280;5932;42.656;23.236;2022-07-06T08:20:35;93781.19;;;21.53;84.97
11750;BME280;5932;42.656;23.236;2022-07-06T08:23:02;93781.84;;;21.48;84.65
11750;BME280;5932;42.656;23.236;2022-07-06T08:25:29;93779.81;;;21.63;84.52
11750;BME280;5932;42.656;23.236;2022-07-06T08:27:58;93781.50;;;21.75;84.44
11750;BME280;5932;42.656;23.236;2022-07-06T08:30:24;93779.22;;;21.74;84.69
11750;BME280;5932;42.656;23.236;2022-07-06T08:32:51;93776.25;;;21.77;86.63
11750;BME280;5932;42.656;23.236;2022-07-06T08:35:18;93781.72;;;21.72;85.91
11750;BME280;5932;42.656;23.236;2022-07-06T08:37:45;93775.63;;;21.68;86.01
11750;BME280;5932;42.656;23.236;2022-07-06T08:40:13;93784.47;;;21.72;85.13
11750;BME280;5932;42.656;23.236;2022-07-06T08:42:41;93775.44;;;21.71;84.82
11750;BME280;5932;42.656;23.236;2022-07-06T08:45:11;93781.47;;;21.55;85.63
11750;BME280;5932;42.656;23.236;2022-07-06T08:47:41;93775.97;;;21.75;85.38
11750;BME280;5932;42.656;23.236;2022-07-06T08:50:09;93776.72;;;21.90;85.70
11750;BME280;5932;42.656;23.236;2022-07-06T08:52:36;93777.13;;;21.83;85.35
11750;BME280;5932;42.656;23.236;2022-07-06T08:55:04;93781.84;;;21.97;84.98
11750;BME280;5932;42.656;23.236;2022-07-06T08:57:31;93782.47;;;22.07;83.61
11750;BME280;5932;42.656;23.236;2022-07-06T08:59:58;93781.56;;;22.16;84.09
11750;BME280;5932;42.656;23.236;2022-07-06T09:02:26;93791.22;;;22.26;82.93
11750;BME280;5932;42.656;23.236;2022-07-06T09:04:55;93784.53;;;22.32;80.59
11750;BME280;5932;42.656;23.236;2022-07-06T09:07:25;93791.69;;;22.44;81.06
11750;BME280;5932;42.656;23.236;2022-07-06T09:09:54;93789.13;;;22.61;81.80
11750;BME280;5932;42.656;23.236;2022-07-06T09:12:22;93792.44;;;22.65;80.27
11750;BME280;5932;42.656;23.236;2022-07-06T09:14:49;93784.88;;;22.60;80.52
11750;BME280;5932;42.656;23.236;2022-07-06T09:17:16;93778.97;;;22.72;80.69
11750;BME280;5932;42.656;23.236;2022-07-06T09:19:45;93777.88;;;22.90;79.36
11750;BME280;5932;42.656;23.236;2022-07-06T09:22:25;93788.84;;;22.79;76.70
11750;BME280;5932;42.656;23.236;2022-07-06T09:24:52;93780.72;;;22.70;78.20
11750;BME280;5932;42.656;23.236;2022-07-06T09:27:19;93790.59;;;22.56;77.76
11750;BME280;5932;42.656;23.236;2022-07-06T09:29:46;93789.28;;;22.52;79.43
11750;BME280;5932;42.656;23.236;2022-07-06T09:32:19;93780.94;;;22.46;78.75
11750;BME280;5932;42.656;23.236;2022-07-06T09:34:48;93781.88;;;22.43;78.98
11750;BME280;5932;42.656;23.236;2022-07-06T09:37:15;93788.88;;;22.59;78.40
11750;BME280;5932;42.656;23.236;2022-07-06T09:39:43;93780.06;;;22.80;79.34
11750;BME280;5932;42.656;23.236;2022-07-06T09:42:10;93777.97;;;22.95;78.81
11750;BME280;5932;42.656;23.236;2022-07-06T09:44:38;93769.34;;;22.62;79.18
11750;BME280;5932;42.656;23.236;2022-07-06T10:14:26;93779.84;;;22.84;75.02
11750;BME280;5932;42.656;23.236;2022-07-06T10:16:55;93771.81;;;22.86;76.02
11750;BME280;5932;42.656;23.236;2022-07-06T10:19:21;93767.91;;;22.98;76.05
11750;BME280;5932;42.656;23.236;2022-07-06T10:21:48;93754.22;;;22.83;77.39
11750;BME280;5932;42.656;23.236;2022-07-06T10:24:17;93758.75;;;22.61;77.04
11750;BME280;5932;42.656;23.236;2022-07-06T10:26:46;93758.34;;;22.68;77.77
11750;BME280;5932;42.656;23.236;2022-07-06T10:29:13;93750.13;;;22.73;77.09
11750;BME280;5932;42.656;23.236;2022-07-06T10:31:43;93758.88;;;22.97;77.00
11750;BME280;5932;42.656;23.236;2022-07-06T10:34:13;93763.16;;;22.98;75.12
11750;BME280;5932;42.656;23.236;2022-07-06T10:36:42;93746.25;;;23.17;76.22
11750;BME280;5932;42.656;23.236;2022-07-06T10:39:10;93756.28;;;23.45;75.69
11750;BME280;5932;42.656;23.236;2022-07-06T10:41:55;93758.13;;;23.59;72.27
11750;BME280;5932;42.656;23.236;2022-07-06T10:44:23;93760.69;;;23.68;71.58
11750;BME280;5932;42.656;23.236;2022-07-06T10:46:53;93761.09;;;23.93;71.41
11750;BME280;5932;42.656;23.236;2022-07-06T10:49:20;93758.69;;;24.06;70.77
11750;BME280;5932;42.656;23.236;2022-07-06T10:51:48;93759.03;;;23.82;72.49
11750;BME280;5932;42.656;23.236;2022-07-06T10:54:16;93768.22;;;23.68;71.96
11750;BME280;5932;42.656;23.236;2022-07-06T10:56:46;93761.75;;;23.76;71.42
11750;BME280;5932;42.656;23.236;2022-07-06T10:59:14;93764.72;;;23.67;71.14
11750;BME280;5932;42.656;23.236;2022-07-06T11:02:14;93764.28;;;23.80;72.16
11750;BME280;5932;42.656;23.236;2022-07-06T11:04:42;93751.63;;;24.05;73.13
11750;BME280;5932;42.656;23.236;2022-07-06T11:07:10;93761.56;;;24.28;70.39
11750;BME280;5932;42.656;23.236;2022-07-06T11:09:38;93753.53;;;24.41;68.98
11750;BME280;5932;42.656;23.236;2022-07-06T11:12:15;93762.72;;;24.75;68.42
11750;BME280;5932;42.656;23.236;2022-07-06T11:14:44;93760.47;;;24.79;68.01
11750;BME280;5932;42.656;23.236;2022-07-06T11:17:12;93757.97;;;24.75;66.74
11750;BME280;5932;42.656;23.236;2022-07-06T11:19:49;93771.81;;;24.81;67.57
11750;BME280;5932;42.656;23.236;2022-07-06T11:22:18;93766.44;;;24.55;67.72
11750;BME280;5932;42.656;23.236;2022-07-06T11:24:45;93749.06;;;24.01;67.83
11750;BME280;5932;42.656;23.236;2022-07-06T11:27:12;93754.22;;;24.25;69.35
11750;BME280;5932;42.656;23.236;2022-07-06T11:29:39;93752.59;;;24.02;67.19
11750;BME280;5932;42.656;23.236;2022-07-06T11:32:08;93757.44;;;24.07;67.38
11750;BME280;5932;42.656;23.236;2022-07-06T11:34:37;93745.63;;;24.12;67.61
11750;BME280;5932;42.656;23.236;2022-07-06T11:37:08;93746.41;;;24.23;66.69
11750;BME280;5932;42.656;23.236;2022-07-06T11:39:36;93754.84;;;24.51;66.16
11750;BME280;5932;42.656;23.236;2022-07-06T11:42:05;93740.97;;;24.40;64.81
11750;BME280;5932;42.656;23.236;2022-07-06T11:44:33;93736.94;;;24.52;63.58
11750;BME280;5932;42.656;23.236;2022-07-06T11:47:00;93731.72;;;24.65;64.97
11750;BME280;5932;42.656;23.236;2022-07-06T11:49:29;93734.22;;;24.57;64.93
11750;BME280;5932;42.656;23.236;2022-07-06T11:51:56;93728.13;;;24.48;64.07
11750;BME280;5932;42.656;23.236;2022-07-06T11:54:25;93720.06;;;24.50;66.09
11750;BME280;5932;42.656;23.236;2022-07-06T11:56:54;93720.16;;;24.78;65.20
11750;BME280;5932;42.656;23.236;2022-07-06T11:59:23;93719.94;;;24.87;63.75
11750;BME280;5932;42.656;23.236;2022-07-06T12:01:57;93717.59;;;24.68;64.53
11750;BME280;5932;42.656;23.236;2022-07-06T12:04:24;93716.31;;;24.64;64.28
11750;BME280;5932;42.656;23.236;2022-07-06T12:06:51;93718.06;;;24.45;64.27
11750;BME280;5932;42.656;23.236;2022-07-06T12:09:18;93715.28;;;24.45;64.81
11750;BME280;5932;42.656;23.236;2022-07-06T12:11:47;93715.63;;;24.75;66.04
11750;BME280;5932;42.656;23.236;2022-07-06T12:14:16;93723.13;;;24.63;64.48
11750;BME280;5932;42.656;23.236;2022-07-06T12:16:43;93720.63;;;24.65;65.77
11750;BME280;5932;42.656;23.236;2022-07-06T12:19:11;93717.28;;;24.50;65.75
11750;BME280;5932;42.656;23.236;2022-07-06T12:21:42;93724.03;;;24.32;66.05
11750;BME280;5932;42.656;23.236;2022-07-06T12:24:10;93727.16;;;23.98;67.58
11750;BME280;5932;42.656;23.236;2022-07-06T12:26:39;93720.81;;;23.86;69.69
11750;BME280;5932;42.656;23.236;2022-07-06T12:29:09;93722.59;;;23.89;69.22
11750;BME280;5932;42.656;23.236;2022-07-06T12:31:40;93733.50;;;24.04;68.21
11750;BME280;5932;42.656;23.236;2022-07-06T12:34:13;93719.34;;;23.96;69.19
11750;BME280;5932;42.656;23.236;2022-07-06T12:36:45;93710.81;;;24.00;69.12
11750;BME280;5932;42.656;23.236;2022-07-06T12:39:12;93706.81;;;24.01;68.82
11750;BME280;5932;42.656;23.236;2022-07-06T12:41:45;93710.19;;;24.32;65.96
11750;BME280;5932;42.656;23.236;2022-07-06T12:44:15;93709.28;;;24.57;65.30
11750;BME280;5932;42.656;23.236;2022-07-06T12:46:43;93696.69;;;24.56;65.39
11750;BME280;5932;42.656;23.236;2022-07-06T12:49:15;93692.94;;;24.65;65.88
11750;BME280;5932;42.656;23.236;2022-07-06T12:51:56;93697.69;;;24.70;66.84
11750;BME280;5932;42.656;23.236;2022-07-06T12:54:24;93691.22;;;24.84;66.25
11750;BME280;5932;42.656;23.236;2022-07-06T12:59:41;93699.00;;;24.91;63.72
11750;BME280;5932;42.656;23.236;2022-07-06T13:02:10;93687.41;;;24.76;64.66
11750;BME280;5932;42.656;23.236;2022-07-06T13:04:43;93694.94;;;24.70;63.98
11750;BME280;5932;42.656;23.236;2022-07-06T13:07:20;93682.31;;;24.41;65.57
11750;BME280;5932;42.656;23.236;2022-07-06T13:09:47;93676.34;;;24.87;64.96
11750;BME280;5932;42.656;23.236;2022-07-06T13:12:14;93681.88;;;25.26;63.69
11750;BME280;5932;42.656;23.236;2022-07-06T13:14:42;93670.78;;;25.48;61.91
11750;BME280;5932;42.656;23.236;2022-07-06T13:17:09;93672.28;;;25.54;59.60
11750;BME280;5932;42.656;23.236;2022-07-06T13:19:35;93669.38;;;25.93;60.32
11750;BME280;5932;42.656;23.236;2022-07-06T13:22:03;93681.41;;;26.18;59.91
11750;BME280;5932;42.656;23.236;2022-07-06T13:24:29;93675.59;;;26.27;58.14
11750;BME280;5932;42.656;23.236;2022-07-06T13:26:57;93670.84;;;26.11;58.90
11750;BME280;5932;42.656;23.236;2022-07-06T13:29:24;93670.31;;;26.18;58.55